Time;durP1;ratioP1;P1;durP2;ratioP2;P2;SDS_P1;SDS_P2;PMS_P1;PMS_P2;Temp;Humidity;BMP_temperature;BMP_pressure;BME280_temperature;BME280_humidity;BME280_pressure;Samples;Min_cycle;Max_cycle;Signal;HPM_P1;HPM_P2
2022/08/17 00:00:00;;;;;;;10.90;9.80;;;21.60;99.90;;;;;;4952404;29;20427;-81
2022/08/17 00:02:27;;;;;;;11.37;10.27;;;21.60;99.90;;;;;;4955593;28;21025;-81
2022/08/17 00:04:56;;;;;;;13.50;10.50;;;21.60;99.90;;;;;;4954564;28;20431;-80
2022/08/17 00:07:23;;;;;;;11.50;10.40;;;21.60;99.90;;;;;;4954945;29;20759;-80
2022/08/17 00:09:51;;;;;;;11.77;8.67;;;21.60;99.90;;;;;;4963571;28;20450;-78
2022/08/17 00:12:18;;;;;;;14.37;9.77;;;21.60;99.90;;;;;;4958215;28;20457;-80
2022/08/17 00:15:07;;;;;;;10.07;9.17;;;21.60;99.90;;;;;;4958369;28;20469;-80
2022/08/17 00:17:36;;;;;;;14.03;10.30;;;21.60;99.90;;;;;;4956521;29;20524;-81
2022/08/17 00:20:04;;;;;;;11.57;10.40;;;21.60;99.90;;;;;;4950590;29;20418;-81
2022/08/17 00:22:31;;;;;;;13.90;9.87;;;21.60;99.90;;;;;;4957605;28;20767;-81
2022/08/17 00:25:10;;;;;;;9.10;8.40;;;21.50;99.90;;;;;;4968815;28;20455;-79
2022/08/17 00:27:37;;;;;;;10.27;9.27;;;21.40;99.90;;;;;;4956245;28;20414;-79
2022/08/17 00:30:06;;;;;;;12.03;8.90;;;21.40;99.90;;;;;;4949475;29;20411;-80
2022/08/17 00:32:45;;;;;;;13.13;10.00;;;21.40;99.90;;;;;;4958904;28;20451;-80
2022/08/17 00:35:33;;;;;;;10.33;9.20;;;21.40;99.90;;;;;;4966683;28;20438;-80
2022/08/17 00:38:00;;;;;;;10.03;9.03;;;21.20;99.90;;;;;;4957730;28;20482;-78
2022/08/17 00:40:27;;;;;;;10.97;9.97;;;21.10;99.90;;;;;;4956610;29;20412;-81
2022/08/17 00:43:34;;;;;;;11.97;9.60;;;21.20;99.90;;;;;;4952103;29;20418;-80
2022/08/17 00:46:33;;;;;;;10.97;9.37;;;21.20;99.90;;;;;;4952469;28;20447;-80
2022/08/17 00:49:01;;;;;;;10.67;9.70;;;21.20;99.90;;;;;;4949520;29;20452;-80
2022/08/17 00:51:37;;;;;;;10.93;9.80;;;21.10;99.90;;;;;;4951003;29;20515;-79
2022/08/17 00:54:19;;;;;;;13.00;10.93;;;21.10;99.90;;;;;;4956489;28;20431;-80
2022/08/17 00:56:59;;;;;;;12.97;10.80;;;21.20;99.90;;;;;;4961759;28;20860;-81
2022/08/17 00:59:30;;;;;;;14.03;10.63;;;21.10;99.90;;;;;;4961731;28;20649;-79
2022/08/17 01:01:58;;;;;;;10.60;9.60;;;21.00;99.90;;;;;;4961298;28;20424;-80
2022/08/17 01:04:28;;;;;;;18.67;10.00;;;21.00;99.90;;;;;;4963846;28;20452;-80
2022/08/17 01:06:56;;;;;;;11.23;10.20;;;21.10;99.90;;;;;;4960483;28;20829;-79
2022/08/17 01:09:23;;;;;;;11.47;10.40;;;21.00;99.90;;;;;;4959719;29;20484;-82
2022/08/17 01:11:51;;;;;;;10.73;9.63;;;21.00;99.90;;;;;;4956371;29;20431;-79
2022/08/17 01:14:21;;;;;;;12.00;10.80;;;21.00;99.90;;;;;;4961855;28;20425;-80
2022/08/17 01:16:50;;;;;;;10.10;9.03;;;21.00;99.90;;;;;;4960878;28;20425;-80
2022/08/17 01:19:22;;;;;;;11.33;10.10;;;21.00;99.90;;;;;;4959947;29;20550;-81
2022/08/17 01:21:50;;;;;;;9.07;8.17;;;21.00;99.90;;;;;;4955560;29;20495;-79
2022/08/17 01:24:17;;;;;;;15.57;11.73;;;21.00;99.90;;;;;;4961276;29;20660;-80
2022/08/17 01:26:45;;;;;;;10.73;9.77;;;21.00;99.90;;;;;;4958440;29;20496;-80
2022/08/17 01:29:12;;;;;;;12.80;11.60;;;21.00;99.90;;;;;;4960902;29;20615;-80
2022/08/17 01:31:45;;;;;;;10.63;9.53;;;21.00;99.90;;;;;;4960942;28;20421;-81
2022/08/17 01:34:16;;;;;;;11.57;10.40;;;21.00;99.90;;;;;;4958953;28;20446;-81
2022/08/17 01:36:46;;;;;;;14.13;11.40;;;21.00;99.90;;;;;;4960867;28;20426;-81
2022/08/17 01:39:23;;;;;;;15.10;11.30;;;20.90;99.90;;;;;;4957666;28;20588;-81
2022/08/17 01:41:55;;;;;;;11.60;10.40;;;20.80;99.90;;;;;;4954007;29;20416;-79
2022/08/17 01:44:25;;;;;;;12.03;10.23;;;20.80;99.90;;;;;;4957188;28;20441;-80
2022/08/17 01:46:53;;;;;;;11.53;10.43;;;20.90;99.90;;;;;;4961177;28;20453;-80
2022/08/17 01:49:21;;;;;;;10.90;9.80;;;20.80;99.90;;;;;;4960682;28;20542;-79
2022/08/17 01:51:49;;;;;;;12.63;11.40;;;20.80;99.90;;;;;;4960627;28;20420;-79
2022/08/17 01:54:17;;;;;;;12.17;10.93;;;20.80;99.90;;;;;;4960379;28;20789;-80
2022/08/17 01:56:48;;;;;;;12.00;10.80;;;20.80;99.90;;;;;;4957657;28;20453;-80
2022/08/17 01:59:17;;;;;;;13.00;11.80;;;20.80;99.90;;;;;;4955339;29;20673;-79
2022/08/17 02:01:45;;;;;;;13.40;11.97;;;20.60;99.90;;;;;;4955139;29;20454;-80
2022/08/17 02:04:13;;;;;;;13.20;11.90;;;20.60;99.90;;;;;;4953946;28;20414;-80
2022/08/17 02:06:42;;;;;;;13.00;11.50;;;20.70;99.90;;;;;;4953328;28;20417;-80
2022/08/17 02:09:22;;;;;;;14.53;12.90;;;20.70;99.90;;;;;;4964028;28;20416;-78
2022/08/17 02:11:52;;;;;;;12.53;11.30;;;20.70;99.90;;;;;;4960560;29;20441;-80
2022/08/17 02:14:22;;;;;;;13.10;10.47;;;20.60;99.90;;;;;;4959517;29;20441;-81
2022/08/17 02:16:49;;;;;;;16.93;10.70;;;20.60;99.90;;;;;;4958202;29;20719;-81
2022/08/17 02:19:16;;;;;;;31.00;13.10;;;20.70;99.90;;;;;;4960760;28;20460;-81
2022/08/17 02:21:45;;;;;;;11.60;10.50;;;20.70;99.90;;;;;;4960184;28;20758;-81
2022/08/17 02:24:17;;;;;;;13.73;12.30;;;20.70;99.90;;;;;;4961281;28;20745;-81
2022/08/17 02:27:05;;;;;;;12.17;11.07;;;20.60;99.90;;;;;;4967211;28;20416;-80
2022/08/17 02:29:31;;;;;;;15.37;11.00;;;20.60;99.90;;;;;;4973004;28;20471;-81
2022/08/17 02:32:00;;;;;;;14.47;12.70;;;20.60;99.90;;;;;;4969227;28;20445;-81
2022/08/17 02:34:28;;;;;;;14.50;13.10;;;20.50;99.90;;;;;;4965031;28;20440;-81
2022/08/17 02:36:55;;;;;;;15.10;12.07;;;20.40;99.90;;;;;;4970473;28;20659;-80
2022/08/17 02:39:22;;;;;;;13.60;12.20;;;20.40;99.90;;;;;;4960349;28;20463;-80
2022/08/17 02:41:58;;;;;;;14.00;12.60;;;20.40;99.90;;;;;;4951226;29;20521;-81
2022/08/17 02:44:25;;;;;;;15.00;11.70;;;20.40;99.90;;;;;;4960739;28;20404;-80
2022/08/17 02:47:07;;;;;;;13.27;12.00;;;20.40;99.90;;;;;;4960131;28;20420;-80
2022/08/17 02:49:34;;;;;;;13.07;11.70;;;20.30;99.90;;;;;;4959088;28;20418;-79
2022/08/17 02:52:05;;;;;;;14.10;12.70;;;20.20;99.90;;;;;;4955465;29;20424;-79
2022/08/17 02:54:31;;;;;;;13.43;12.13;;;20.20;99.90;;;;;;4951475;28;20408;-80
2022/08/17 02:57:08;;;;;;;13.17;11.77;;;20.20;99.90;;;;;;4959500;28;20587;-80
2022/08/17 02:59:38;;;;;;;15.80;13.13;;;20.20;99.90;;;;;;4957510;28;20462;-81
2022/08/17 03:02:11;;;;;;;12.90;11.80;;;20.20;99.90;;;;;;4958564;28;20421;-80
2022/08/17 03:04:37;;;;;;;13.47;12.03;;;20.20;99.90;;;;;;4958681;28;20448;-80
2022/08/17 03:07:05;;;;;;;12.60;11.23;;;20.20;99.90;;;;;;4958625;28;20430;-81
2022/08/17 03:09:32;;;;;;;13.70;12.33;;;20.20;99.90;;;;;;4957775;28;20453;-80
2022/08/17 03:12:08;;;;;;;13.67;12.27;;;20.10;99.90;;;;;;4955812;29;20412;-79
2022/08/17 03:14:40;;;;;;;12.10;10.90;;;20.00;99.90;;;;;;4957040;29;20425;-80
2022/08/17 03:17:09;;;;;;;12.73;11.60;;;19.90;99.90;;;;;;4952690;28;20423;-79
2022/08/17 03:19:36;;;;;;;20.10;11.57;;;19.90;99.90;;;;;;4962752;28;20540;-81
2022/08/17 03:22:08;;;;;;;15.87;13.03;;;20.00;99.90;;;;;;4954118;28;20479;-81
2022/08/17 03:24:56;;;;;;;17.00;13.57;;;20.00;99.90;;;;;;4957908;28;20402;-80
2022/08/17 03:27:22;;;;;;;15.57;14.17;;;20.10;99.90;;;;;;4966409;28;20455;-82
2022/08/17 03:29:50;;;;;;;15.10;12.73;;;20.10;99.90;;;;;;4957011;28;20490;-79
2022/08/17 03:32:19;;;;;;;15.23;13.73;;;20.10;99.90;;;;;;4957392;29;20442;-79
2022/08/17 03:34:46;;;;;;;14.33;12.83;;;20.10;99.90;;;;;;4960577;28;20450;-79
2022/08/17 03:37:14;;;;;;;13.03;11.17;;;20.10;99.90;;;;;;4955712;29;20516;-79
2022/08/17 03:39:41;;;;;;;15.53;13.80;;;20.10;99.90;;;;;;4957223;28;20498;-81
2022/08/17 03:42:13;;;;;;;13.80;12.30;;;20.10;99.90;;;;;;4948165;28;20424;-81
2022/08/17 03:44:58;;;;;;;14.73;12.90;;;20.00;99.90;;;;;;4952364;29;20791;-80
2022/08/17 03:58:29;;;;;;;14.97;13.57;;;20.10;99.90;;;;;;4954889;29;20473;-80
2022/08/17 04:00:56;;;;;;;14.83;13.33;;;20.10;99.90;;;;;;4949007;28;20733;-80
2022/08/17 04:03:23;;;;;;;14.50;13.00;;;20.10;99.90;;;;;;4956351;28;20475;-80
2022/08/17 04:05:50;;;;;;;15.70;14.00;;;20.20;99.90;;;;;;4958183;28;20441;-80
2022/08/17 04:08:17;;;;;;;20.10;14.53;;;20.20;99.90;;;;;;4958751;28;20450;-80
2022/08/17 04:10:45;;;;;;;15.67;13.97;;;20.30;99.90;;;;;;4957957;28;20735;-80
2022/08/17 04:13:12;;;;;;;14.50;13.00;;;20.30;99.90;;;;;;4958155;28;20784;-80
2022/08/17 04:15:40;;;;;;;14.07;12.70;;;20.20;99.90;;;;;;4957920;28;20802;-80
2022/08/17 04:18:07;;;;;;;13.60;11.90;;;20.40;99.90;;;;;;4950543;28;21280;-80
2022/08/17 04:20:36;;;;;;;13.47;12.20;;;20.40;99.90;;;;;;4952630;28;20754;-80
2022/08/17 04:23:10;;;;;;;13.33;11.93;;;20.40;99.90;;;;;;4961826;28;20456;-79
2022/08/17 04:25:43;;;;;;;13.73;12.37;;;20.50;99.90;;;;;;4955793;28;20424;-81
2022/08/17 04:28:10;;;;;;;13.63;12.23;;;20.70;99.90;;;;;;4951575;28;20602;-81
2022/08/17 04:30:43;;;;;;;16.63;12.67;;;20.70;99.90;;;;;;4947221;29;20439;-81
2022/08/17 04:33:16;;;;;;;12.60;11.40;;;20.80;99.90;;;;;;4950747;28;20419;-81
2022/08/17 04:35:47;;;;;;;13.10;11.70;;;20.90;99.90;;;;;;4966841;28;20777;-81
2022/08/17 04:38:21;;;;;;;16.33;13.10;;;21.00;99.90;;;;;;4951441;29;20410;-81
2022/08/17 04:43:35;;;;;;;11.77;10.57;;;21.10;99.90;;;;;;4961694;28;20716;-81
2022/08/17 04:46:10;;;;;;;15.23;12.10;;;21.20;99.90;;;;;;4962440;28;20448;-80
2022/08/17 04:48:41;;;;;;;11.40;10.30;;;21.40;99.90;;;;;;4961228;29;20513;-82
2022/08/17 04:51:21;;;;;;;11.30;10.10;;;21.40;99.90;;;;;;4965083;28;20505;-80
2022/08/17 04:53:53;;;;;;;10.87;9.80;;;21.60;99.90;;;;;;4960851;29;20681;-81
2022/08/17 04:56:22;;;;;;;11.47;10.43;;;21.80;99.90;;;;;;4962864;29;20458;-80
2022/08/17 04:58:51;;;;;;;12.20;9.73;;;21.90;99.90;;;;;;4963324;28;20460;-81
2022/08/17 05:01:21;;;;;;;11.43;10.43;;;21.90;99.90;;;;;;4963083;28;20426;-81
2022/08/17 05:03:50;;;;;;;11.83;10.70;;;22.10;99.90;;;;;;4953017;29;20439;-81
2022/08/17 05:06:17;;;;;;;16.20;10.60;;;22.40;99.90;;;;;;4957823;29;20519;-79
2022/08/17 05:08:44;;;;;;;11.40;9.57;;;22.60;99.90;;;;;;4957885;28;20458;-81
2022/08/17 05:11:11;;;;;;;16.83;13.13;;;22.50;99.90;;;;;;4960644;28;20455;-80
2022/08/17 05:13:38;;;;;;;11.73;9.93;;;22.40;99.90;;;;;;4961108;29;20598;-80
2022/08/17 05:16:06;;;;;;;11.93;10.10;;;22.40;99.90;;;;;;4968990;28;20436;-81
2022/08/17 05:18:32;;;;;;;11.80;10.20;;;22.50;99.90;;;;;;4971830;28;20419;-80
2022/08/17 05:21:01;;;;;;;18.20;10.43;;;22.60;99.90;;;;;;4974335;28;20539;-80
2022/08/17 05:23:28;;;;;;;12.47;9.23;;;22.60;99.90;;;;;;4963785;28;20448;-80
2022/08/17 05:26:08;;;;;;;11.87;10.00;;;22.80;99.90;;;;;;4962148;28;20404;-80
2022/08/17 05:28:51;;;;;;;9.57;8.77;;;23.00;99.90;;;;;;4960876;29;20696;-80
2022/08/17 05:31:19;;;;;;;15.20;10.43;;;23.00;99.90;;;;;;4961842;28;20459;-81
2022/08/17 05:33:48;;;;;;;10.37;9.37;;;23.10;99.90;;;;;;4960200;28;20458;-81
2022/08/17 05:36:15;;;;;;;11.27;10.07;;;23.20;99.90;;;;;;4957728;28;20693;-80
2022/08/17 05:39:02;;;;;;;10.90;9.20;;;23.30;99.90;;;;;;4970115;28;20438;-80
2022/08/17 05:41:29;;;;;;;11.77;8.90;;;23.40;99.90;;;;;;4959103;28;20509;-82
2022/08/17 05:43:56;;;;;;;11.20;9.50;;;23.50;99.90;;;;;;4959795;29;20445;-81
2022/08/17 05:46:27;;;;;;;10.20;9.40;;;23.60;99.90;;;;;;4959662;28;20618;-80
2022/08/17 05:49:16;;;;;;;10.23;9.23;;;23.70;99.90;;;;;;4960046;28;20471;-81
2022/08/17 05:52:07;;;;;;;13.73;9.10;;;23.70;99.90;;;;;;4962946;28;20811;-80
2022/08/17 05:55:09;;;;;;;9.50;8.70;;;24.10;99.90;;;;;;4959446;28;20438;-80
2022/08/17 05:57:40;;;;;;;9.60;8.30;;;24.20;99.90;;;;;;4936955;28;20599;-80
2022/08/17 06:00:38;;;;;;;9.93;8.93;;;24.40;99.90;;;;;;4962012;28;20492;-80
2022/08/17 06:03:46;;;;;;;10.20;7.60;;;24.80;99.90;;;;;;4966580;28;20818;-81
2022/08/17 06:06:27;;;;;;;10.40;9.50;;;25.00;99.90;;;;;;4959340;28;20436;-81
2022/08/17 06:09:11;;;;;;;8.50;7.70;;;25.10;99.90;;;;;;4963886;28;20451;-81
2022/08/17 06:12:04;;;;;;;9.27;8.47;;;25.20;99.90;;;;;;4964385;28;20401;-80
2022/08/17 06:15:01;;;;;;;12.37;9.10;;;25.40;99.90;;;;;;4957115;29;20438;-80
2022/08/17 06:17:28;;;;;;;10.50;8.27;;;25.60;99.90;;;;;;4955639;28;20427;-81
2022/08/17 06:20:04;;;;;;;9.10;8.20;;;25.80;99.90;;;;;;4958246;28;20488;-81
2022/08/17 06:22:39;;;;;;;8.40;7.60;;;25.90;99.90;;;;;;4957757;28;20493;-81
2022/08/17 06:25:25;;;;;;;13.43;9.50;;;26.00;99.90;;;;;;4954417;29;20574;-82
2022/08/17 06:28:03;;;;;;;9.13;8.07;;;26.10;99.90;;;;;;4958160;29;20750;-81
2022/08/17 06:30:40;;;;;;;9.10;8.40;;;26.30;99.90;;;;;;4956681;28;20430;-80
2022/08/17 06:33:35;;;;;;;8.93;8.23;;;26.60;99.90;;;;;;4953773;29;20593;-81
2022/08/17 06:36:18;;;;;;;10.90;8.53;;;26.90;99.90;;;;;;4955382;28;20465;-81
2022/08/17 06:39:02;;;;;;;9.23;8.33;;;27.10;99.90;;;;;;4951180;28;20444;-81
2022/08/17 06:41:48;;;;;;;10.57;9.17;;;27.40;99.90;;;;;;4954379;28;20411;-80
2022/08/17 06:44:22;;;;;;;12.20;7.93;;;27.90;99.90;;;;;;4958329;28;20443;-80
2022/08/17 06:47:27;;;;;;;8.53;7.73;;;28.30;99.90;;;;;;4965451;28;20491;-80
2022/08/17 06:50:04;;;;;;;8.60;7.57;;;28.80;99.90;;;;;;4961183;28;20499;-82
2022/08/17 06:52:36;;;;;;;8.30;7.50;;;29.40;99.90;;;;;;4961961;28;20414;-80
2022/08/17 06:55:45;;;;;;;13.03;7.70;;;30.30;99.90;;;;;;4962124;28;20519;-81
2022/08/17 06:58:14;;;;;;;9.73;7.30;;;31.60;99.90;;;;;;4961623;28;20639;-81
2022/08/17 07:00:46;;;;;;;7.67;6.90;;;32.20;99.90;;;;;;4959914;28;20495;-82
2022/08/17 07:03:28;;;;;;;6.63;6.13;;;33.10;99.90;;;;;;4947770;29;20477;-81
2022/08/17 07:06:04;;;;;;;9.17;7.20;;;33.60;99.90;;;;;;4949897;29;20513;-80
2022/08/17 07:08:46;;;;;;;7.83;7.03;;;34.90;99.90;;;;;;4950255;28;20756;-81
2022/08/17 07:11:18;;;;;;;9.30;7.00;;;34.60;99.90;;;;;;4958885;28;20425;-81
2022/08/17 07:14:26;;;;;;;19.53;8.60;;;36.60;99.90;;;;;;4956237;28;20450;-82
2022/08/17 07:16:55;;;;;;;19.17;9.43;;;37.90;97.70;;;;;;4953308;29;20436;-82
2022/08/17 07:19:25;;;;;;;7.53;6.83;;;37.90;94.90;;;;;;4954372;29;20485;-81
2022/08/17 07:22:00;;;;;;;7.60;6.93;;;37.50;94.30;;;;;;4951981;28;20469;-81
2022/08/17 07:24:29;;;;;;;7.17;6.57;;;38.30;93.60;;;;;;4970779;28;20704;-80
2022/08/17 07:27:40;;;;;;;13.13;6.53;;;38.50;92.10;;;;;;4958825;28;20896;-81
2022/08/17 07:30:21;;;;;;;8.20;6.60;;;40.00;89.40;;;;;;4955787;28;20529;-81
2022/08/17 07:33:07;;;;;;;9.17;7.30;;;42.00;78.20;;;;;;4949456;29;20454;-82
2022/08/17 07:35:43;;;;;;;8.50;6.87;;;42.10;74.70;;;;;;4948896;28;20446;-81
2022/08/17 07:38:15;;;;;;;13.00;8.20;;;41.70;72.60;;;;;;4952125;29;20460;-81
2022/08/17 07:41:01;;;;;;;8.00;7.23;;;41.40;71.80;;;;;;4954284;28;20624;-80
2022/08/17 07:43:38;;;;;;;11.20;7.03;;;42.20;69.90;;;;;;4961402;28;20441;-81
2022/08/17 07:49:13;;;;;;;7.30;6.00;;;43.30;65.00;;;;;;4957323;28;20619;-81
2022/08/17 07:51:44;;;;;;;7.40;6.70;;;44.10;62.20;;;;;;4970239;28;20460;-81
2022/08/17 07:54:14;;;;;;;7.97;7.27;;;45.60;59.70;;;;;;4961829;28;20446;-83
2022/08/17 07:56:45;;;;;;;5.93;5.37;;;46.10;57.60;;;;;;4956949;29;20449;-82
2022/08/17 07:59:15;;;;;;;8.77;4.97;;;46.00;56.50;;;;;;4951875;29;20447;-82
2022/08/17 08:01:57;;;;;;;5.40;4.90;;;45.00;56.00;;;;;;4955486;29;20468;-81
2022/08/17 08:04:35;;;;;;;8.20;5.93;;;44.80;55.30;;;;;;4955338;28;20449;-82
2022/08/17 08:07:33;;;;;;;6.17;5.67;;;45.70;56.30;;;;;;4957492;29;20453;-81
2022/08/17 08:10:13;;;;;;;6.03;5.50;;;45.30;54.20;;;;;;4957058;29;20448;-82
2022/08/17 08:12:48;;;;;;;6.10;5.27;;;42.90;57.30;;;;;;4951296;28;20445;-82
2022/08/17 08:15:32;;;;;;;6.63;6.03;;;42.70;57.90;;;;;;4952728;29;20661;-83
2022/08/17 08:18:02;;;;;;;5.83;5.30;;;43.70;56.40;;;;;;4950487;28;21019;-82
2022/08/17 08:20:48;;;;;;;7.97;5.30;;;45.20;55.50;;;;;;4954223;29;20665;-82
2022/08/17 08:23:43;;;;;;;5.80;5.33;;;45.00;54.80;;;;;;4953492;29;20446;-82
2022/08/17 08:26:19;;;;;;;6.70;5.30;;;47.00;52.50;;;;;;4946944;29;20460;-82
2022/08/17 08:29:07;;;;;;;7.37;5.77;;;46.90;51.30;;;;;;4957710;29;20559;-82
2022/08/17 08:32:00;;;;;;;6.07;5.33;;;45.20;53.10;;;;;;4961640;28;20513;-83
2022/08/17 08:34:59;;;;;;;5.77;5.37;;;44.00;53.70;;;;;;4959311;29;20434;-84
2022/08/17 08:37:42;;;;;;;6.80;5.33;;;43.40;55.30;;;;;;4958006;28;20436;-84
2022/08/17 08:40:38;;;;;;;5.43;4.97;;;43.40;54.90;;;;;;4952886;29;20488;-84
2022/08/17 08:43:36;;;;;;;5.60;5.20;;;43.60;55.00;;;;;;4951126;28;20454;-84
2022/08/17 08:46:34;;;;;;;6.50;6.00;;;43.90;54.30;;;;;;4950543;28;20492;-82
2022/08/17 08:49:38;;;;;;;7.73;6.30;;;45.20;52.70;;;;;;4966884;28;20441;-82
2022/08/17 08:52:53;;;;;;;5.10;4.67;;;47.00;49.90;;;;;;4949921;29;20524;-84
2022/08/17 08:55:44;;;;;;;7.90;5.50;;;48.20;48.50;;;;;;4951891;29;20453;-83
2022/08/17 08:58:23;;;;;;;6.27;5.37;;;48.10;48.20;;;;;;4947651;28;20689;-83
2022/08/17 09:01:34;;;;;;;6.93;5.30;;;48.50;47.60;;;;;;4946468;29;20713;-81
2022/08/17 09:04:13;;;;;;;5.20;4.90;;;49.10;45.70;;;;;;4949780;29;20784;-84
2022/08/17 09:07:06;;;;;;;5.77;5.00;;;49.40;45.40;;;;;;4947660;29;20773;-82
2022/08/17 09:09:45;;;;;;;5.30;4.80;;;48.70;45.90;;;;;;4945188;29;20472;-85
2022/08/17 09:12:34;;;;;;;5.80;5.30;;;47.50;46.20;;;;;;4947349;28;20524;-82
2022/08/17 09:15:11;;;;;;;8.33;6.77;;;46.40;46.30;;;;;;4955183;28;20608;-83
2022/08/17 09:17:53;;;;;;;6.90;6.40;;;45.90;47.30;;;;;;4949818;29;20462;-84
2022/08/17 09:20:50;;;;;;;4.97;4.67;;;45.60;47.90;;;;;;4952270;29;20467;-84
2022/08/17 09:23:38;;;;;;;6.00;5.03;;;45.80;47.70;;;;;;4945502;29;20448;-85
2022/08/17 09:26:24;;;;;;;7.57;5.30;;;45.90;47.30;;;;;;4946251;29;20652;-83
2022/08/17 09:28:59;;;;;;;6.40;5.80;;;45.10;48.40;;;;;;4950774;29;20554;-84
2022/08/17 09:31:37;;;;;;;6.53;5.90;;;44.40;49.30;;;;;;4946708;29;20530;-83
2022/08/17 09:34:20;;;;;;;4.93;4.27;;;43.10;52.40;;;;;;4947275;29;20769;-83
2022/08/17 09:37:21;;;;;;;6.00;5.40;;;41.20;51.70;;;;;;4948148;29;20446;-82
2022/08/17 09:40:12;;;;;;;5.97;5.47;;;37.00;56.60;;;;;;4949300;29;20482;-82
2022/08/17 09:43:17;;;;;;;5.00;4.60;;;35.00;60.20;;;;;;4956293;29;20445;-81
2022/08/17 09:45:50;;;;;;;6.30;5.70;;;33.60;65.50;;;;;;4946248;29;20697;-85
2022/08/17 09:48:24;;;;;;;6.03;5.53;;;33.00;67.60;;;;;;4954049;29;20713;-84
2022/08/17 09:51:06;;;;;;;6.70;6.20;;;32.80;68.10;;;;;;4949817;29;20495;-82
2022/08/17 09:53:37;;;;;;;7.20;5.37;;;33.10;68.60;;;;;;4944168;29;20873;-82
2022/08/17 09:56:04;;;;;;;8.33;6.83;;;33.30;67.90;;;;;;4948026;28;20450;-81
2022/08/17 09:58:34;;;;;;;6.77;6.20;;;33.50;69.00;;;;;;4951261;29;20441;-84
2022/08/17 10:01:24;;;;;;;6.43;5.87;;;33.50;70.80;;;;;;4946472;28;20808;-84
2022/08/17 10:04:31;;;;;;;6.07;5.57;;;33.20;71.60;;;;;;4943305;29;20442;-86
2022/08/17 10:07:15;;;;;;;8.60;6.93;;;32.90;73.60;;;;;;4948492;28;20472;-83
2022/08/17 10:10:02;;;;;;;6.97;6.23;;;32.70;74.90;;;;;;4947885;28;20711;-84
2022/08/17 10:12:52;;;;;;;9.53;7.10;;;32.70;74.80;;;;;;4957485;28;20775;-84
2022/08/17 10:15:47;;;;;;;9.10;7.53;;;32.70;74.70;;;;;;4960617;29;20453;-84
2022/08/17 10:18:49;;;;;;;7.60;5.43;;;32.80;74.50;;;;;;4951647;28;20788;-82
2022/08/17 10:27:51;;;;;;;9.73;5.80;;;32.90;74.90;;;;;;4955100;28;20441;-82
2022/08/17 10:30:22;;;;;;;6.87;6.27;;;32.70;74.10;;;;;;4957694;29;21056;-81
2022/08/17 10:32:59;;;;;;;6.20;5.70;;;32.80;75.10;;;;;;4956899;29;20446;-81
2022/08/17 10:35:51;;;;;;;7.23;6.60;;;32.90;73.90;;;;;;4953233;28;20439;-84
2022/08/17 10:38:55;;;;;;;6.50;5.90;;;32.90;73.20;;;;;;4952984;29;20488;-81
2022/08/17 10:41:25;;;;;;;6.70;6.20;;;32.70;73.40;;;;;;4954649;28;20499;-83
2022/08/17 10:44:24;;;;;;;6.80;6.20;;;32.80;74.80;;;;;;4953845;29;20647;-83
2022/08/17 10:47:14;;;;;;;7.30;6.43;;;32.50;73.00;;;;;;4951193;29;20441;-83
2022/08/17 10:49:48;;;;;;;6.80;6.30;;;32.40;74.10;;;;;;4958536;28;20403;-82
2022/08/17 10:52:18;;;;;;;6.17;5.67;;;32.30;73.40;;;;;;4960140;28;20437;-83
2022/08/17 10:54:46;;;;;;;6.77;6.00;;;32.50;74.00;;;;;;4958420;28;20525;-82
2022/08/17 10:57:25;;;;;;;6.53;6.03;;;32.90;74.50;;;;;;4958057;29;20455;-81
2022/08/17 11:00:02;;;;;;;5.83;5.33;;;33.00;75.20;;;;;;4956641;29;20445;-83
2022/08/17 11:02:44;;;;;;;7.03;6.43;;;33.00;75.50;;;;;;4955881;29;20509;-83
2022/08/17 11:05:40;;;;;;;6.37;5.60;;;33.00;76.60;;;;;;4953160;29;20442;-82
2022/08/17 11:08:50;;;;;;;6.27;5.70;;;32.50;74.50;;;;;;4945297;29;20465;-81
2022/08/17 11:11:46;;;;;;;6.20;5.70;;;32.10;75.10;;;;;;4953938;29;20512;-81
2022/08/17 11:14:40;;;;;;;7.07;6.47;;;32.00;74.40;;;;;;4954463;29;20729;-83
2022/08/17 11:17:28;;;;;;;7.77;6.90;;;31.70;75.80;;;;;;4948485;29;20512;-82
2022/08/17 11:20:33;;;;;;;6.17;5.57;;;31.20;76.00;;;;;;4951463;29;20607;-80
2022/08/17 11:23:30;;;;;;;5.33;4.83;;;31.00;78.10;;;;;;4948259;29;20432;-81
2022/08/17 11:26:06;;;;;;;5.80;5.30;;;31.00;74.50;;;;;;4942341;29;20421;-81
2022/08/17 11:28:47;;;;;;;6.43;5.83;;;31.20;76.20;;;;;;4952670;29;20802;-83
2022/08/17 11:31:29;;;;;;;5.60;5.20;;;31.40;75.10;;;;;;4949788;29;20608;-82
2022/08/17 11:34:25;;;;;;;6.37;5.77;;;31.80;73.60;;;;;;4947910;29;20518;-83
2022/08/17 11:37:02;;;;;;;5.03;4.63;;;31.60;72.60;;;;;;4959220;29;20445;-81
2022/08/17 11:39:37;;;;;;;5.97;5.43;;;31.70;72.40;;;;;;4957978;28;20427;-84
2022/08/17 11:42:10;;;;;;;6.60;4.93;;;31.80;72.10;;;;;;4947275;29;20492;-80
2022/08/17 11:44:57;;;;;;;11.40;5.63;;;31.80;72.30;;;;;;4956750;29;20770;-79
2022/08/17 11:51:33;;;;;;;5.30;4.80;;;32.40;71.90;;;;;;4946071;28;20501;-80
2022/08/17 11:54:34;;;;;;;5.30;4.90;;;32.70;69.80;;;;;;4955274;28;20469;-80
2022/08/17 11:57:28;;;;;;;5.67;5.27;;;32.60;69.20;;;;;;4971544;28;20457;-81
2022/08/17 12:00:11;;;;;;;5.20;4.80;;;32.70;70.40;;;;;;4966853;28;20441;-81
2022/08/17 12:02:48;;;;;;;7.23;5.50;;;32.80;69.70;;;;;;4953339;28;20777;-82
2022/08/17 12:05:16;;;;;;;7.87;6.37;;;32.80;70.40;;;;;;4946536;29;20442;-82
2022/08/17 12:07:51;;;;;;;6.63;6.03;;;32.90;71.40;;;;;;4949768;29;20445;-83
2022/08/17 12:10:30;;;;;;;5.37;4.97;;;32.80;71.90;;;;;;4945761;29;20761;-80
2022/08/17 12:13:09;;;;;;;7.73;7.13;;;32.40;70.80;;;;;;4956386;29;20508;-79
2022/08/17 12:15:49;;;;;;;5.10;4.70;;;32.20;71.60;;;;;;4955056;29;20434;-82
2022/08/17 12:18:26;;;;;;;5.30;4.90;;;32.10;70.40;;;;;;4953930;29;20424;-83
2022/08/17 12:21:12;;;;;;;6.30;5.87;;;32.10;71.40;;;;;;4960443;29;20525;-82
2022/08/17 12:23:49;;;;;;;5.63;5.23;;;32.20;72.30;;;;;;4951727;29;20496;-82
2022/08/17 12:26:18;;;;;;;5.60;5.10;;;32.20;73.80;;;;;;4951610;29;20434;-85
2022/08/17 12:28:50;;;;;;;5.40;5.00;;;32.10;73.20;;;;;;4952851;29;20437;-81
2022/08/17 12:31:28;;;;;;;5.47;5.07;;;31.90;73.70;;;;;;4949026;29;20452;-82
2022/08/17 12:33:55;;;;;;;6.03;5.03;;;31.80;75.50;;;;;;4952171;28;20430;-83
2022/08/17 12:36:24;;;;;;;5.87;5.47;;;31.90;74.20;;;;;;4953313;28;20451;-81
2022/08/17 12:39:00;;;;;;;6.23;5.73;;;32.20;75.70;;;;;;4953884;28;20798;-81
2022/08/17 12:41:43;;;;;;;6.10;5.60;;;32.20;74.60;;;;;;4949808;29;20474;-82
2022/08/17 12:44:10;;;;;;;6.40;5.90;;;32.30;75.30;;;;;;4956070;29;20513;-83
2022/08/17 12:46:47;;;;;;;5.70;5.30;;;32.30;76.00;;;;;;4953310;28;20442;-83
2022/08/17 12:49:34;;;;;;;5.80;5.30;;;32.30;75.10;;;;;;4959256;28;20455;-82
2022/08/17 12:52:23;;;;;;;8.00;6.50;;;32.30;74.30;;;;;;4958181;29;20605;-81
2022/08/17 12:55:05;;;;;;;5.10;4.70;;;32.50;74.50;;;;;;4951667;29;20472;-85
2022/08/17 12:57:40;;;;;;;5.90;5.40;;;32.80;73.50;;;;;;4955879;28;20437;-80
2022/08/17 13:00:11;;;;;;;6.87;5.87;;;32.60;75.70;;;;;;4949558;29;20449;-81
2022/08/17 13:02:45;;;;;;;6.20;5.70;;;32.60;76.10;;;;;;4955933;29;20512;-84
2022/08/17 13:05:23;;;;;;;6.97;6.37;;;32.60;76.30;;;;;;4955750;28;20931;-83
2022/08/17 13:07:52;;;;;;;7.70;6.90;;;32.60;76.40;;;;;;4956515;29;20628;-84
2022/08/17 13:10:30;;;;;;;7.03;6.40;;;32.40;76.30;;;;;;4955924;28;20447;-83
2022/08/17 13:13:04;;;;;;;6.57;6.07;;;32.40;77.50;;;;;;4952259;29;20465;-83
2022/08/17 13:15:40;;;;;;;9.13;5.40;;;32.60;76.70;;;;;;4951381;28;20452;-84
2022/08/17 13:18:37;;;;;;;7.00;6.50;;;32.30;77.50;;;;;;4952040;29;20440;-84
2022/08/17 13:21:22;;;;;;;7.20;5.50;;;32.30;78.20;;;;;;4947983;28;20543;-82
2022/08/17 13:24:09;;;;;;;6.17;5.57;;;32.30;78.70;;;;;;4956106;29;20500;-84
2022/08/17 13:26:40;;;;;;;9.87;5.70;;;32.00;78.50;;;;;;4946786;29;20792;-84
2022/08/17 13:29:33;;;;;;;6.43;5.83;;;31.90;79.60;;;;;;4951032;28;20443;-80
2022/08/17 13:32:03;;;;;;;7.17;6.47;;;31.30;81.50;;;;;;4949721;29;20824;-83
2022/08/17 13:34:45;;;;;;;11.83;6.20;;;31.10;83.30;;;;;;4951615;29;20519;-83
2022/08/17 13:37:35;;;;;;;6.37;5.87;;;30.90;84.50;;;;;;4955725;28;20440;-84
2022/08/17 13:40:08;;;;;;;6.07;5.53;;;30.70;82.60;;;;;;4956251;29;20460;-83
2022/08/17 13:42:41;;;;;;;6.47;5.63;;;30.70;82.20;;;;;;4950769;29;20494;-84
2022/08/17 13:45:28;;;;;;;6.23;5.73;;;30.90;82.70;;;;;;4954166;29;20429;-81
2022/08/17 13:48:07;;;;;;;5.77;5.33;;;31.10;83.30;;;;;;4959132;28;20420;-83
2022/08/17 13:50:46;;;;;;;6.80;6.20;;;30.90;83.00;;;;;;4952301;29;20499;-83
2022/08/17 13:53:26;;;;;;;8.03;5.67;;;31.00;84.20;;;;;;4961235;29;20453;-82
2022/08/17 13:56:00;;;;;;;6.97;6.37;;;30.90;83.70;;;;;;4951247;29;20445;-84
2022/08/17 13:58:31;;;;;;;5.77;5.37;;;30.80;85.00;;;;;;4954390;29;20455;-83